sensor_id;sensor_type;location;lat;lon;timestamp;P1;durP1;ratioP1;P2;durP2;ratioP2
24389;SDS011;12510;56.468;-3.004;2022-10-22T00:01:43;149.98;;;26.83;;
24389;SDS011;12510;56.468;-3.004;2022-10-22T00:04:10;70.00;;;14.85;;
24389;SDS011;12510;56.468;-3.004;2022-10-22T00:06:36;141.60;;;25.90;;
24389;SDS011;12510;56.468;-3.004;2022-10-22T00:09:03;92.35;;;17.83;;
24389;SDS011;12510;56.468;-3.004;2022-10-22T00:11:29;103.35;;;20.52;;
24389;SDS011;12510;56.468;-3.004;2022-10-22T00:13:56;84.30;;;18.92;;
24389;SDS011;12510;56.468;-3.004;2022-10-22T00:16:23;31.92;;;11.57;;
24389;SDS011;12510;56.468;-3.004;2022-10-22T00:18:49;59.33;;;14.32;;
24389;SDS011;12510;56.468;-3.004;2022-10-22T00:21:16;61.92;;;12.85;;
24389;SDS011;12510;56.468;-3.004;2022-10-22T00:23:42;71.68;;;16.17;;
24389;SDS011;12510;56.468;-3.004;2022-10-22T00:26:09;61.97;;;13.45;;
24389;SDS011;12510;56.468;-3.004;2022-10-22T00:28:36;71.13;;;15.05;;
24389;SDS011;12510;56.468;-3.004;2022-10-22T00:31:03;61.05;;;14.07;;
24389;SDS011;12510;56.468;-3.004;2022-10-22T00:33:30;57.65;;;13.95;;
24389;SDS011;12510;56.468;-3.004;2022-10-22T00:35:57;64.30;;;15.93;;
24389;SDS011;12510;56.468;-3.004;2022-10-22T00:38:24;63.40;;;15.80;;
24389;SDS011;12510;56.468;-3.004;2022-10-22T00:40:50;57.38;;;12.95;;
24389;SDS011;12510;56.468;-3.004;2022-10-22T00:43:17;73.47;;;17.75;;
24389;SDS011;12510;56.468;-3.004;2022-10-22T00:45:44;59.10;;;14.60;;
24389;SDS011;12510;56.468;-3.004;2022-10-22T00:51:00;68.13;;;13.95;;
24389;SDS011;12510;56.468;-3.004;2022-10-22T00:53:37;65.55;;;16.00;;
24389;SDS011;12510;56.468;-3.004;2022-10-22T00:56:06;97.03;;;18.40;;
24389;SDS011;12510;56.468;-3.004;2022-10-22T00:58:35;84.72;;;17.48;;
24389;SDS011;12510;56.468;-3.004;2022-10-22T01:01:09;61.30;;;13.20;;
24389;SDS011;12510;56.468;-3.004;2022-10-22T01:03:41;27.25;;;9.55;;
24389;SDS011;12510;56.468;-3.004;2022-10-22T01:06:08;45.78;;;11.30;;
24389;SDS011;12510;56.468;-3.004;2022-10-22T01:12:00;41.40;;;12.55;;
24389;SDS011;12510;56.468;-3.004;2022-10-22T01:23:20;38.63;;;10.00;;
24389;SDS011;12510;56.468;-3.004;2022-10-22T01:29:01;51.85;;;12.82;;
24389;SDS011;12510;56.468;-3.004;2022-10-22T01:31:40;46.15;;;10.02;;
24389;SDS011;12510;56.468;-3.004;2022-10-22T01:34:12;56.95;;;12.55;;
24389;SDS011;12510;56.468;-3.004;2022-10-22T01:36:42;26.08;;;8.93;;
24389;SDS011;12510;56.468;-3.004;2022-10-22T01:39:09;34.33;;;9.70;;
24389;SDS011;12510;56.468;-3.004;2022-10-22T01:41:41;40.13;;;10.90;;
24389;SDS011;12510;56.468;-3.004;2022-10-22T01:44:26;25.27;;;8.90;;
24389;SDS011;12510;56.468;-3.004;2022-10-22T01:47:19;44.47;;;10.30;;
24389;SDS011;12510;56.468;-3.004;2022-10-22T01:53:16;23.60;;;7.85;;
24389;SDS011;12510;56.468;-3.004;2022-10-22T02:01:30;31.83;;;9.90;;
24389;SDS011;12510;56.468;-3.004;2022-10-22T02:06:31;38.00;;;10.75;;
24389;SDS011;12510;56.468;-3.004;2022-10-22T02:09:00;42.80;;;10.65;;
24389;SDS011;12510;56.468;-3.004;2022-10-22T02:11:28;46.67;;;11.30;;
24389;SDS011;12510;56.468;-3.004;2022-10-22T02:13:55;75.40;;;14.75;;
24389;SDS011;12510;56.468;-3.004;2022-10-22T02:16:31;91.20;;;15.32;;
24389;SDS011;12510;56.468;-3.004;2022-10-22T02:19:02;92.53;;;19.10;;
24389;SDS011;12510;56.468;-3.004;2022-10-22T02:21:41;67.03;;;12.93;;
24389;SDS011;12510;56.468;-3.004;2022-10-22T02:24:09;104.38;;;19.73;;
24389;SDS011;12510;56.468;-3.004;2022-10-22T02:26:39;94.53;;;17.00;;
24389;SDS011;12510;56.468;-3.004;2022-10-22T02:29:13;86.13;;;15.27;;
24389;SDS011;12510;56.468;-3.004;2022-10-22T02:31:45;73.80;;;14.43;;
24389;SDS011;12510;56.468;-3.004;2022-10-22T02:34:15;77.15;;;14.75;;
24389;SDS011;12510;56.468;-3.004;2022-10-22T02:36:48;125.70;;;22.27;;
24389;SDS011;12510;56.468;-3.004;2022-10-22T02:39:16;73.95;;;13.57;;
24389;SDS011;12510;56.468;-3.004;2022-10-22T02:41:45;77.80;;;15.00;;
24389;SDS011;12510;56.468;-3.004;2022-10-22T02:44:12;73.55;;;13.88;;
24389;SDS011;12510;56.468;-3.004;2022-10-22T02:46:38;129.65;;;19.90;;
24389;SDS011;12510;56.468;-3.004;2022-10-22T02:49:07;64.85;;;12.88;;
24389;SDS011;12510;56.468;-3.004;2022-10-22T02:51:33;80.78;;;15.38;;
24389;SDS011;12510;56.468;-3.004;2022-10-22T02:54:00;80.40;;;13.13;;
24389;SDS011;12510;56.468;-3.004;2022-10-22T02:56:26;106.70;;;16.58;;
24389;SDS011;12510;56.468;-3.004;2022-10-22T02:58:53;62.97;;;11.20;;
24389;SDS011;12510;56.468;-3.004;2022-10-22T03:01:19;114.38;;;19.65;;
24389;SDS011;12510;56.468;-3.004;2022-10-22T03:03:45;61.80;;;12.77;;
24389;SDS011;12510;56.468;-3.004;2022-10-22T03:06:12;85.07;;;16.35;;
24389;SDS011;12510;56.468;-3.004;2022-10-22T03:08:38;44.15;;;9.45;;
24389;SDS011;12510;56.468;-3.004;2022-10-22T03:11:05;62.95;;;11.27;;
24389;SDS011;12510;56.468;-3.004;2022-10-22T03:13:32;50.42;;;11.68;;
24389;SDS011;12510;56.468;-3.004;2022-10-22T03:15:58;60.42;;;12.98;;
24389;SDS011;12510;56.468;-3.004;2022-10-22T03:18:25;74.75;;;15.30;;
24389;SDS011;12510;56.468;-3.004;2022-10-22T03:20:58;63.60;;;11.90;;
24389;SDS011;12510;56.468;-3.004;2022-10-22T03:23:46;66.07;;;13.10;;
24389;SDS011;12510;56.468;-3.004;2022-10-22T03:26:13;79.07;;;14.25;;
24389;SDS011;12510;56.468;-3.004;2022-10-22T03:28:40;69.82;;;15.27;;
24389;SDS011;12510;56.468;-3.004;2022-10-22T03:31:07;72.00;;;14.63;;
24389;SDS011;12510;56.468;-3.004;2022-10-22T03:33:34;63.47;;;12.80;;
24389;SDS011;12510;56.468;-3.004;2022-10-22T03:36:00;44.97;;;10.60;;
24389;SDS011;12510;56.468;-3.004;2022-10-22T03:38:27;60.05;;;11.38;;
24389;SDS011;12510;56.468;-3.004;2022-10-22T03:40:54;60.95;;;12.88;;
24389;SDS011;12510;56.468;-3.004;2022-10-22T03:43:21;90.85;;;16.23;;
24389;SDS011;12510;56.468;-3.004;2022-10-22T03:45:47;81.65;;;16.00;;
24389;SDS011;12510;56.468;-3.004;2022-10-22T03:48:14;42.15;;;8.32;;
24389;SDS011;12510;56.468;-3.004;2022-10-22T03:50:40;53.42;;;10.07;;
24389;SDS011;12510;56.468;-3.004;2022-10-22T03:53:06;77.05;;;13.63;;
24389;SDS011;12510;56.468;-3.004;2022-10-22T03:55:35;58.22;;;10.85;;
24389;SDS011;12510;56.468;-3.004;2022-10-22T03:58:04;50.30;;;10.23;;
24389;SDS011;12510;56.468;-3.004;2022-10-22T04:00:31;46.97;;;9.88;;
24389;SDS011;12510;56.468;-3.004;2022-10-22T04:02:59;62.55;;;10.23;;
24389;SDS011;12510;56.468;-3.004;2022-10-22T04:05:25;63.10;;;11.70;;
24389;SDS011;12510;56.468;-3.004;2022-10-22T04:07:51;29.70;;;6.47;;
24389;SDS011;12510;56.468;-3.004;2022-10-22T04:10:18;37.15;;;6.65;;
24389;SDS011;12510;56.468;-3.004;2022-10-22T04:12:47;39.53;;;7.55;;
24389;SDS011;12510;56.468;-3.004;2022-10-22T04:15:14;39.33;;;7.40;;
24389;SDS011;12510;56.468;-3.004;2022-10-22T04:17:40;40.15;;;8.70;;
24389;SDS011;12510;56.468;-3.004;2022-10-22T04:20:07;32.47;;;7.13;;
24389;SDS011;12510;56.468;-3.004;2022-10-22T04:22:34;29.35;;;7.07;;
24389;SDS011;12510;56.468;-3.004;2022-10-22T04:25:02;52.95;;;9.70;;
24389;SDS011;12510;56.468;-3.004;2022-10-22T04:27:29;27.52;;;6.15;;
24389;SDS011;12510;56.468;-3.004;2022-10-22T04:29:57;33.47;;;6.55;;
24389;SDS011;12510;56.468;-3.004;2022-10-22T04:32:24;33.40;;;6.65;;
24389;SDS011;12510;56.468;-3.004;2022-10-22T04:34:51;43.72;;;7.97;;
24389;SDS011;12510;56.468;-3.004;2022-10-22T04:37:18;45.95;;;8.27;;
24389;SDS011;12510;56.468;-3.004;2022-10-22T04:39:44;57.22;;;8.88;;
24389;SDS011;12510;56.468;-3.004;2022-10-22T04:42:11;23.35;;;6.75;;
24389;SDS011;12510;56.468;-3.004;2022-10-22T04:44:37;53.95;;;9.38;;
24389;SDS011;12510;56.468;-3.004;2022-10-22T04:47:04;46.65;;;8.73;;
24389;SDS011;12510;56.468;-3.004;2022-10-22T04:49:30;49.50;;;9.60;;
24389;SDS011;12510;56.468;-3.004;2022-10-22T04:51:56;52.47;;;9.00;;
24389;SDS011;12510;56.468;-3.004;2022-10-22T04:54:23;48.33;;;9.02;;
24389;SDS011;12510;56.468;-3.004;2022-10-22T04:56:49;42.38;;;7.65;;
24389;SDS011;12510;56.468;-3.004;2022-10-22T04:59:15;40.90;;;7.13;;
24389;SDS011;12510;56.468;-3.004;2022-10-22T05:01:43;36.50;;;7.85;;
24389;SDS011;12510;56.468;-3.004;2022-10-22T05:04:10;33.50;;;7.90;;
24389;SDS011;12510;56.468;-3.004;2022-10-22T05:06:39;34.40;;;6.80;;
24389;SDS011;12510;56.468;-3.004;2022-10-22T05:09:07;34.20;;;7.43;;
24389;SDS011;12510;56.468;-3.004;2022-10-22T05:11:37;25.85;;;6.10;;
24389;SDS011;12510;56.468;-3.004;2022-10-22T05:14:06;19.38;;;5.63;;
24389;SDS011;12510;56.468;-3.004;2022-10-22T05:16:34;23.23;;;6.13;;
24389;SDS011;12510;56.468;-3.004;2022-10-22T05:19:03;22.77;;;5.95;;
24389;SDS011;12510;56.468;-3.004;2022-10-22T05:21:29;18.38;;;6.25;;
24389;SDS011;12510;56.468;-3.004;2022-10-22T05:23:56;18.27;;;5.45;;
24389;SDS011;12510;56.468;-3.004;2022-10-22T05:26:25;12.63;;;4.78;;
24389;SDS011;12510;56.468;-3.004;2022-10-22T05:28:53;16.38;;;5.28;;
24389;SDS011;12510;56.468;-3.004;2022-10-22T05:31:20;18.30;;;5.35;;
24389;SDS011;12510;56.468;-3.004;2022-10-22T05:33:46;17.75;;;5.40;;
24389;SDS011;12510;56.468;-3.004;2022-10-22T05:36:14;16.75;;;5.07;;
24389;SDS011;12510;56.468;-3.004;2022-10-22T05:38:43;28.73;;;6.28;;
24389;SDS011;12510;56.468;-3.004;2022-10-22T05:41:11;21.70;;;6.28;;
24389;SDS011;12510;56.468;-3.004;2022-10-22T05:46:07;28.27;;;6.95;;
24389;SDS011;12510;56.468;-3.004;2022-10-22T05:48:35;34.50;;;7.32;;
24389;SDS011;12510;56.468;-3.004;2022-10-22T05:51:03;24.58;;;6.05;;
24389;SDS011;12510;56.468;-3.004;2022-10-22T05:53:32;26.23;;;7.32;;
24389;SDS011;12510;56.468;-3.004;2022-10-22T05:56:00;32.42;;;7.30;;
24389;SDS011;12510;56.468;-3.004;2022-10-22T05:58:27;22.08;;;6.55;;
24389;SDS011;12510;56.468;-3.004;2022-10-22T06:00:54;36.00;;;8.15;;
24389;SDS011;12510;56.468;-3.004;2022-10-22T06:03:25;38.47;;;8.18;;
24389;SDS011;12510;56.468;-3.004;2022-10-22T06:05:53;41.78;;;8.45;;
24389;SDS011;12510;56.468;-3.004;2022-10-22T06:08:20;24.52;;;7.35;;
24389;SDS011;12510;56.468;-3.004;2022-10-22T06:10:46;39.28;;;8.52;;
24389;SDS011;12510;56.468;-3.004;2022-10-22T06:13:13;72.20;;;13.98;;
24389;SDS011;12510;56.468;-3.004;2022-10-22T06:15:39;56.28;;;9.98;;
24389;SDS011;12510;56.468;-3.004;2022-10-22T06:18:05;85.35;;;12.07;;
24389;SDS011;12510;56.468;-3.004;2022-10-22T06:20:33;218.07;;;26.92;;
24389;SDS011;12510;56.468;-3.004;2022-10-22T06:23:00;238.60;;;26.38;;
24389;SDS011;12510;56.468;-3.004;2022-10-22T06:25:26;281.23;;;30.17;;
24389;SDS011;12510;56.468;-3.004;2022-10-22T06:27:53;257.75;;;30.38;;
24389;SDS011;12510;56.468;-3.004;2022-10-22T06:30:19;361.48;;;35.35;;
24389;SDS011;12510;56.468;-3.004;2022-10-22T06:32:45;170.98;;;21.67;;
24389;SDS011;12510;56.468;-3.004;2022-10-22T06:35:12;138.15;;;22.27;;
24389;SDS011;12510;56.468;-3.004;2022-10-22T06:37:38;222.73;;;26.40;;
24389;SDS011;12510;56.468;-3.004;2022-10-22T06:40:05;198.60;;;24.83;;
24389;SDS011;12510;56.468;-3.004;2022-10-22T06:42:32;211.35;;;25.15;;
24389;SDS011;12510;56.468;-3.004;2022-10-22T06:44:58;96.15;;;12.75;;
24389;SDS011;12510;56.468;-3.004;2022-10-22T06:47:24;155.05;;;25.27;;
24389;SDS011;12510;56.468;-3.004;2022-10-22T06:49:51;102.78;;;16.17;;
24389;SDS011;12510;56.468;-3.004;2022-10-22T06:52:17;72.80;;;14.50;;
24389;SDS011;12510;56.468;-3.004;2022-10-22T06:54:43;25.77;;;6.28;;
24389;SDS011;12510;56.468;-3.004;2022-10-22T06:57:10;65.80;;;13.55;;
24389;SDS011;12510;56.468;-3.004;2022-10-22T06:59:36;46.47;;;10.23;;
24389;SDS011;12510;56.468;-3.004;2022-10-22T07:02:03;34.72;;;7.20;;
24389;SDS011;12510;56.468;-3.004;2022-10-22T07:04:29;87.25;;;15.13;;
24389;SDS011;12510;56.468;-3.004;2022-10-22T07:06:56;75.43;;;13.82;;
24389;SDS011;12510;56.468;-3.004;2022-10-22T07:09:22;24.20;;;8.27;;
24389;SDS011;12510;56.468;-3.004;2022-10-22T07:11:48;46.95;;;9.98;;
24389;SDS011;12510;56.468;-3.004;2022-10-22T07:14:15;35.83;;;8.55;;
24389;SDS011;12510;56.468;-3.004;2022-10-22T07:16:41;39.67;;;8.50;;
24389;SDS011;12510;56.468;-3.004;2022-10-22T07:19:08;26.00;;;6.97;;
24389;SDS011;12510;56.468;-3.004;2022-10-22T07:21:34;33.17;;;7.82;;
24389;SDS011;12510;56.468;-3.004;2022-10-22T07:24:00;42.50;;;8.50;;
24389;SDS011;12510;56.468;-3.004;2022-10-22T07:26:27;33.65;;;7.82;;
24389;SDS011;12510;56.468;-3.004;2022-10-22T07:28:55;35.33;;;8.65;;
24389;SDS011;12510;56.468;-3.004;2022-10-22T07:31:22;20.90;;;6.97;;
24389;SDS011;12510;56.468;-3.004;2022-10-22T07:33:48;28.65;;;6.90;;
24389;SDS011;12510;56.468;-3.004;2022-10-22T07:36:15;18.77;;;5.82;;
24389;SDS011;12510;56.468;-3.004;2022-10-22T07:41:13;15.38;;;4.90;;
24389;SDS011;12510;56.468;-3.004;2022-10-22T07:43:40;13.88;;;5.30;;
24389;SDS011;12510;56.468;-3.004;2022-10-22T07:46:07;19.83;;;6.28;;
24389;SDS011;12510;56.468;-3.004;2022-10-22T07:48:34;8.98;;;4.78;;
24389;SDS011;12510;56.468;-3.004;2022-10-22T07:51:01;14.90;;;5.53;;
24389;SDS011;12510;56.468;-3.004;2022-10-22T07:53:28;7.88;;;4.68;;
24389;SDS011;12510;56.468;-3.004;2022-10-22T07:55:55;24.25;;;7.97;;
24389;SDS011;12510;56.468;-3.004;2022-10-22T07:58:21;10.43;;;5.03;;
24389;SDS011;12510;56.468;-3.004;2022-10-22T08:00:48;7.50;;;4.38;;
24389;SDS011;12510;56.468;-3.004;2022-10-22T08:03:16;9.32;;;4.25;;
24389;SDS011;12510;56.468;-3.004;2022-10-22T08:05:43;6.97;;;4.28;;
24389;SDS011;12510;56.468;-3.004;2022-10-22T08:08:10;4.60;;;3.70;;
24389;SDS011;12510;56.468;-3.004;2022-10-22T08:10:38;5.90;;;3.78;;
24389;SDS011;12510;56.468;-3.004;2022-10-22T08:13:05;7.25;;;4.15;;
24389;SDS011;12510;56.468;-3.004;2022-10-22T08:15:32;11.68;;;3.90;;
24389;SDS011;12510;56.468;-3.004;2022-10-22T08:17:59;9.48;;;4.47;;
24389;SDS011;12510;56.468;-3.004;2022-10-22T08:20:25;6.32;;;4.72;;
24389;SDS011;12510;56.468;-3.004;2022-10-22T08:22:51;7.90;;;4.65;;
24389;SDS011;12510;56.468;-3.004;2022-10-22T08:25:18;6.20;;;4.90;;
24389;SDS011;12510;56.468;-3.004;2022-10-22T08:27:44;6.93;;;4.68;;
24389;SDS011;12510;56.468;-3.004;2022-10-22T08:30:11;6.40;;;4.97;;
24389;SDS011;12510;56.468;-3.004;2022-10-22T08:32:38;6.28;;;4.07;;
24389;SDS011;12510;56.468;-3.004;2022-10-22T08:35:04;6.75;;;4.40;;
24389;SDS011;12510;56.468;-3.004;2022-10-22T08:37:31;6.15;;;4.05;;
24389;SDS011;12510;56.468;-3.004;2022-10-22T08:39:57;6.15;;;4.10;;
24389;SDS011;12510;56.468;-3.004;2022-10-22T08:45:39;6.28;;;3.60;;
24389;SDS011;12510;56.468;-3.004;2022-10-22T08:48:44;5.55;;;3.55;;
24389;SDS011;12510;56.468;-3.004;2022-10-22T08:51:23;3.67;;;3.35;;
24389;SDS011;12510;56.468;-3.004;2022-10-22T08:56:21;2.88;;;2.67;;
24389;SDS011;12510;56.468;-3.004;2022-10-22T08:58:51;4.90;;;3.42;;
24389;SDS011;12510;56.468;-3.004;2022-10-22T09:01:25;3.67;;;2.97;;
24389;SDS011;12510;56.468;-3.004;2022-10-22T09:07:01;2.30;;;2.10;;
24389;SDS011;12510;56.468;-3.004;2022-10-22T09:09:32;2.53;;;1.98;;
24389;SDS011;12510;56.468;-3.004;2022-10-22T09:12:05;2.20;;;2.08;;
24389;SDS011;12510;56.468;-3.004;2022-10-22T09:14:32;1.92;;;1.83;;
24389;SDS011;12510;56.468;-3.004;2022-10-22T09:17:12;1.90;;;1.70;;
24389;SDS011;12510;56.468;-3.004;2022-10-22T09:22:56;1.67;;;1.58;;
24389;SDS011;12510;56.468;-3.004;2022-10-22T09:25:31;1.75;;;1.65;;
24389;SDS011;12510;56.468;-3.004;2022-10-22T09:28:02;1.88;;;1.77;;
24389;SDS011;12510;56.468;-3.004;2022-10-22T09:30:30;1.60;;;1.50;;
24389;SDS011;12510;56.468;-3.004;2022-10-22T09:33:01;1.90;;;1.75;;
24389;SDS011;12510;56.468;-3.004;2022-10-22T09:35:46;2.20;;;2.00;;
24389;SDS011;12510;56.468;-3.004;2022-10-22T09:38:17;3.13;;;1.92;;
24389;SDS011;12510;56.468;-3.004;2022-10-22T09:40:46;2.70;;;2.50;;
24389;SDS011;12510;56.468;-3.004;2022-10-22T09:43:15;2.90;;;2.70;;
24389;SDS011;12510;56.468;-3.004;2022-10-22T09:45:42;5.38;;;3.30;;
24389;SDS011;12510;56.468;-3.004;2022-10-22T09:50:43;3.50;;;3.20;;
24389;SDS011;12510;56.468;-3.004;2022-10-22T09:53:13;4.07;;;3.67;;
24389;SDS011;12510;56.468;-3.004;2022-10-22T09:55:42;4.75;;;4.22;;
24389;SDS011;12510;56.468;-3.004;2022-10-22T09:58:10;5.70;;;5.20;;
24389;SDS011;12510;56.468;-3.004;2022-10-22T10:00:38;6.80;;;5.30;;
24389;SDS011;12510;56.468;-3.004;2022-10-22T10:03:09;6.10;;;5.50;;
24389;SDS011;12510;56.468;-3.004;2022-10-22T10:05:42;5.82;;;5.07;;
24389;SDS011;12510;56.468;-3.004;2022-10-22T10:08:13;5.18;;;4.68;;
24389;SDS011;12510;56.468;-3.004;2022-10-22T10:10:45;5.63;;;4.85;;
24389;SDS011;12510;56.468;-3.004;2022-10-22T10:16:09;6.07;;;5.13;;
24389;SDS011;12510;56.468;-3.004;2022-10-22T10:21:56;5.13;;;4.72;;
24389;SDS011;12510;56.468;-3.004;2022-10-22T10:27:27;3.42;;;3.22;;
24389;SDS011;12510;56.468;-3.004;2022-10-22T10:30:33;2.88;;;2.67;;
24389;SDS011;12510;56.468;-3.004;2022-10-22T10:35:26;3.25;;;3.05;;
24389;SDS011;12510;56.468;-3.004;2022-10-22T10:43:31;3.80;;;3.45;;
24389;SDS011;12510;56.468;-3.004;2022-10-22T10:46:39;3.40;;;3.20;;
24389;SDS011;12510;56.468;-3.004;2022-10-22T10:51:44;3.97;;;3.58;;
24389;SDS011;12510;56.468;-3.004;2022-10-22T11:10:39;3.10;;;2.85;;
24389;SDS011;12510;56.468;-3.004;2022-10-22T11:13:11;4.55;;;2.88;;
24389;SDS011;12510;56.468;-3.004;2022-10-22T11:21:26;2.80;;;2.60;;
24389;SDS011;12510;56.468;-3.004;2022-10-22T11:29:29;3.55;;;3.13;;
24389;SDS011;12510;56.468;-3.004;2022-10-22T11:32:00;3.78;;;3.47;;
24389;SDS011;12510;56.468;-3.004;2022-10-22T11:34:35;4.07;;;3.08;;
24389;SDS011;12510;56.468;-3.004;2022-10-22T11:37:10;3.65;;;3.35;;
24389;SDS011;12510;56.468;-3.004;2022-10-22T11:39:51;3.05;;;2.75;;
24389;SDS011;12510;56.468;-3.004;2022-10-22T11:42:22;5.25;;;3.67;;
24389;SDS011;12510;56.468;-3.004;2022-10-22T11:45:00;3.33;;;2.67;;
24389;SDS011;12510;56.468;-3.004;2022-10-22T12:03:43;3.30;;;2.97;;
24389;SDS011;12510;56.468;-3.004;2022-10-22T12:08:44;3.35;;;3.10;;
24389;SDS011;12510;56.468;-3.004;2022-10-22T12:13:51;2.50;;;2.30;;
24389;SDS011;12510;56.468;-3.004;2022-10-22T12:16:42;2.75;;;2.20;;
24389;SDS011;12510;56.468;-3.004;2022-10-22T12:19:17;2.30;;;2.13;;
24389;SDS011;12510;56.468;-3.004;2022-10-22T12:22:14;1.73;;;1.63;;
24389;SDS011;12510;56.468;-3.004;2022-10-22T12:24:48;1.67;;;1.58;;
24389;SDS011;12510;56.468;-3.004;2022-10-22T12:27:20;2.88;;;2.40;;
24389;SDS011;12510;56.468;-3.004;2022-10-22T12:29:55;3.08;;;2.40;;
24389;SDS011;12510;56.468;-3.004;2022-10-22T12:32:34;3.20;;;2.90;;
24389;SDS011;12510;56.468;-3.004;2022-10-22T12:35:07;4.00;;;2.58;;
24389;SDS011;12510;56.468;-3.004;2022-10-22T12:37:40;2.58;;;2.35;;
24389;SDS011;12510;56.468;-3.004;2022-10-22T12:40:25;2.88;;;2.60;;
24389;SDS011;12510;56.468;-3.004;2022-10-22T12:42:54;2.95;;;2.42;;
24389;SDS011;12510;56.468;-3.004;2022-10-22T12:45:24;6.13;;;3.20;;
24389;SDS011;12510;56.468;-3.004;2022-10-22T12:47:57;2.92;;;2.67;;
24389;SDS011;12510;56.468;-3.004;2022-10-22T12:50:33;4.47;;;4.07;;
24389;SDS011;12510;56.468;-3.004;2022-10-22T12:55:49;4.60;;;3.75;;
24389;SDS011;12510;56.468;-3.004;2022-10-22T12:58:20;3.53;;;3.20;;
24389;SDS011;12510;56.468;-3.004;2022-10-22T13:00:54;3.17;;;2.88;;
24389;SDS011;12510;56.468;-3.004;2022-10-22T13:03:28;3.67;;;2.95;;
24389;SDS011;12510;56.468;-3.004;2022-10-22T13:06:12;4.18;;;3.38;;
24389;SDS011;12510;56.468;-3.004;2022-10-22T13:11:38;3.85;;;2.88;;
24389;SDS011;12510;56.468;-3.004;2022-10-22T13:14:20;3.30;;;3.00;;
24389;SDS011;12510;56.468;-3.004;2022-10-22T13:19:46;7.05;;;3.58;;
24389;SDS011;12510;56.468;-3.004;2022-10-22T13:22:35;4.63;;;3.10;;
24389;SDS011;12510;56.468;-3.004;2022-10-22T13:27:30;5.18;;;3.25;;
24389;SDS011;12510;56.468;-3.004;2022-10-22T13:29:57;2.63;;;2.42;;
24389;SDS011;12510;56.468;-3.004;2022-10-22T13:32:29;8.77;;;3.28;;
24389;SDS011;12510;56.468;-3.004;2022-10-22T13:34:57;5.28;;;2.35;;
24389;SDS011;12510;56.468;-3.004;2022-10-22T13:37:26;4.65;;;2.20;;
24389;SDS011;12510;56.468;-3.004;2022-10-22T13:39:55;7.22;;;5.68;;
24389;SDS011;12510;56.468;-3.004;2022-10-22T13:42:21;2.00;;;1.75;;
24389;SDS011;12510;56.468;-3.004;2022-10-22T13:44:47;3.65;;;1.55;;
24389;SDS011;12510;56.468;-3.004;2022-10-22T13:47:23;10.73;;;4.07;;
24389;SDS011;12510;56.468;-3.004;2022-10-22T13:49:52;4.05;;;2.60;;
24389;SDS011;12510;56.468;-3.004;2022-10-22T13:52:36;3.28;;;2.97;;
24389;SDS011;12510;56.468;-3.004;2022-10-22T13:58:11;5.18;;;2.38;;
24389;SDS011;12510;56.468;-3.004;2022-10-22T14:00:38;5.75;;;2.67;;
24389;SDS011;12510;56.468;-3.004;2022-10-22T14:03:09;9.13;;;5.10;;
24389;SDS011;12510;56.468;-3.004;2022-10-22T14:05:37;5.30;;;2.92;;
24389;SDS011;12510;56.468;-3.004;2022-10-22T14:08:04;3.55;;;2.78;;
24389;SDS011;12510;56.468;-3.004;2022-10-22T14:10:39;4.05;;;3.25;;
24389;SDS011;12510;56.468;-3.004;2022-10-22T14:13:06;5.00;;;3.20;;
24389;SDS011;12510;56.468;-3.004;2022-10-22T14:15:33;3.58;;;3.22;;
24389;SDS011;12510;56.468;-3.004;2022-10-22T14:17:59;5.55;;;3.15;;
24389;SDS011;12510;56.468;-3.004;2022-10-22T14:20:27;10.48;;;4.07;;
24389;SDS011;12510;56.468;-3.004;2022-10-22T14:22:55;5.60;;;3.28;;
24389;SDS011;12510;56.468;-3.004;2022-10-22T14:25:27;8.60;;;3.55;;
24389;SDS011;12510;56.468;-3.004;2022-10-22T14:27:56;6.83;;;3.30;;
24389;SDS011;12510;56.468;-3.004;2022-10-22T14:30:23;4.68;;;3.75;;
24389;SDS011;12510;56.468;-3.004;2022-10-22T14:32:50;4.85;;;3.80;;
24389;SDS011;12510;56.468;-3.004;2022-10-22T14:35:19;5.25;;;3.80;;
24389;SDS011;12510;56.468;-3.004;2022-10-22T14:37:47;5.22;;;4.13;;
24389;SDS011;12510;56.468;-3.004;2022-10-22T14:40:16;4.20;;;3.80;;
24389;SDS011;12510;56.468;-3.004;2022-10-22T14:45:13;5.00;;;4.38;;
24389;SDS011;12510;56.468;-3.004;2022-10-22T14:47:49;4.90;;;3.83;;
24389;SDS011;12510;56.468;-3.004;2022-10-22T14:50:17;3.63;;;3.33;;
24389;SDS011;12510;56.468;-3.004;2022-10-22T14:52:44;4.18;;;3.63;;
24389;SDS011;12510;56.468;-3.004;2022-10-22T14:55:11;3.88;;;3.58;;
24389;SDS011;12510;56.468;-3.004;2022-10-22T14:57:39;4.72;;;3.60;;
24389;SDS011;12510;56.468;-3.004;2022-10-22T15:00:10;6.75;;;3.25;;
24389;SDS011;12510;56.468;-3.004;2022-10-22T15:02:38;7.07;;;3.70;;
24389;SDS011;12510;56.468;-3.004;2022-10-22T15:05:05;3.92;;;3.47;;
24389;SDS011;12510;56.468;-3.004;2022-10-22T15:07:32;4.93;;;3.72;;
24389;SDS011;12510;56.468;-3.004;2022-10-22T15:09:59;4.32;;;3.08;;
24389;SDS011;12510;56.468;-3.004;2022-10-22T15:12:25;3.42;;;3.13;;
24389;SDS011;12510;56.468;-3.004;2022-10-22T15:14:52;4.13;;;3.45;;
24389;SDS011;12510;56.468;-3.004;2022-10-22T15:17:18;4.35;;;3.95;;
24389;SDS011;12510;56.468;-3.004;2022-10-22T15:19:45;4.00;;;3.38;;
24389;SDS011;12510;56.468;-3.004;2022-10-22T15:22:11;3.55;;;3.28;;
24389;SDS011;12510;56.468;-3.004;2022-10-22T15:24:39;4.07;;;3.65;;
24389;SDS011;12510;56.468;-3.004;2022-10-22T15:29:34;3.08;;;2.88;;
24389;SDS011;12510;56.468;-3.004;2022-10-22T15:32:01;5.70;;;2.90;;
24389;SDS011;12510;56.468;-3.004;2022-10-22T15:34:32;3.97;;;3.58;;
24389;SDS011;12510;56.468;-3.004;2022-10-22T15:37:00;3.85;;;2.85;;
24389;SDS011;12510;56.468;-3.004;2022-10-22T15:39:28;3.15;;;2.83;;
24389;SDS011;12510;56.468;-3.004;2022-10-22T15:41:55;2.55;;;2.33;;
24389;SDS011;12510;56.468;-3.004;2022-10-22T15:44:23;2.78;;;2.53;;
24389;SDS011;12510;56.468;-3.004;2022-10-22T15:46:51;3.20;;;2.90;;
24389;SDS011;12510;56.468;-3.004;2022-10-22T15:49:20;3.75;;;2.60;;
24389;SDS011;12510;56.468;-3.004;2022-10-22T15:51:47;3.05;;;2.65;;
24389;SDS011;12510;56.468;-3.004;2022-10-22T15:54:15;2.60;;;2.40;;
24389;SDS011;12510;56.468;-3.004;2022-10-22T15:56:43;2.63;;;2.42;;
24389;SDS011;12510;56.468;-3.004;2022-10-22T15:59:11;2.58;;;2.38;;
24389;SDS011;12510;56.468;-3.004;2022-10-22T16:01:39;2.00;;;1.90;;
24389;SDS011;12510;56.468;-3.004;2022-10-22T16:04:06;1.92;;;1.83;;
24389;SDS011;12510;56.468;-3.004;2022-10-22T16:06:34;2.90;;;1.70;;
24389;SDS011;12510;56.468;-3.004;2022-10-22T16:09:06;1.60;;;1.50;;
24389;SDS011;12510;56.468;-3.004;2022-10-22T16:11:34;1.20;;;1.15;;
24389;SDS011;12510;56.468;-3.004;2022-10-22T16:14:02;1.15;;;0.82;;
24389;SDS011;12510;56.468;-3.004;2022-10-22T16:16:29;2.55;;;1.30;;
24389;SDS011;12510;56.468;-3.004;2022-10-22T16:18:57;1.05;;;1.00;;
24389;SDS011;12510;56.468;-3.004;2022-10-22T16:21:24;1.13;;;1.00;;
24389;SDS011;12510;56.468;-3.004;2022-10-22T16:23:50;1.50;;;0.90;;
24389;SDS011;12510;56.468;-3.004;2022-10-22T16:26:17;0.90;;;0.60;;
24389;SDS011;12510;56.468;-3.004;2022-10-22T16:28:45;2.72;;;2.25;;
24389;SDS011;12510;56.468;-3.004;2022-10-22T16:31:14;0.95;;;0.75;;
24389;SDS011;12510;56.468;-3.004;2022-10-22T16:33:41;0.57;;;0.57;;
24389;SDS011;12510;56.468;-3.004;2022-10-22T16:36:09;0.77;;;0.77;;
24389;SDS011;12510;56.468;-3.004;2022-10-22T16:38:36;1.98;;;1.17;;
24389;SDS011;12510;56.468;-3.004;2022-10-22T16:41:06;0.68;;;0.68;;
24389;SDS011;12510;56.468;-3.004;2022-10-22T16:43:34;1.08;;;0.57;;
24389;SDS011;12510;56.468;-3.004;2022-10-22T16:46:01;1.10;;;0.70;;
24389;SDS011;12510;56.468;-3.004;2022-10-22T16:48:28;0.82;;;0.60;;
24389;SDS011;12510;56.468;-3.004;2022-10-22T16:50:54;2.85;;;0.93;;
24389;SDS011;12510;56.468;-3.004;2022-10-22T16:53:20;0.90;;;0.70;;